createdAt,value
2018-12-04T00:01:35.963Z,99294.00
2018-12-04T00:06:37.372Z,99309.00
2018-12-04T00:11:38.762Z,99317.00
2018-12-04T00:16:40.146Z,99328.00
2018-12-04T00:21:41.530Z,99339.00
2018-12-04T00:26:43.013Z,99348.00
2018-12-04T00:31:44.426Z,99339.00
2018-12-04T00:36:45.793Z,99356.00
2018-12-04T00:41:47.252Z,99363.00
2018-12-04T00:46:48.659Z,99372.00
2018-12-04T00:51:50.080Z,99378.00
2018-12-04T00:56:51.449Z,99381.00
2018-12-04T01:01:52.845Z,99401.00
2018-12-04T01:06:54.227Z,99412.00
2018-12-04T01:11:55.693Z,99420.00
2018-12-04T01:16:57.140Z,99439.00
2018-12-04T01:21:58.541Z,99447.00
2018-12-04T01:26:59.907Z,99455.00
2018-12-04T01:32:01.381Z,99452.00
2018-12-04T01:37:02.976Z,99464.00
2018-12-04T01:42:04.493Z,99467.00
2018-12-04T01:47:05.885Z,99474.00
2018-12-04T01:52:07.301Z,99484.00
2018-12-04T01:57:08.678Z,99494.00
2018-12-04T02:02:10.052Z,99499.00
2018-12-04T02:07:11.514Z,99496.00
2018-12-04T02:12:12.924Z,99504.00
2018-12-04T02:17:14.344Z,99505.00
2018-12-04T02:22:15.723Z,99516.00
2018-12-04T02:27:17.100Z,99522.00
2018-12-04T02:32:18.608Z,99523.00
2018-12-04T02:37:19.999Z,99533.00
2018-12-04T02:42:24.335Z,99540.00
2018-12-04T02:47:25.791Z,99549.00
2018-12-04T02:52:27.193Z,99555.00
2018-12-04T02:57:28.673Z,99557.00
2018-12-04T03:02:30.081Z,99576.00
2018-12-04T03:07:31.500Z,99588.00
2018-12-04T03:12:33.032Z,99591.00
2018-12-04T03:17:34.529Z,99592.00
2018-12-04T03:22:36.000Z,99606.00
2018-12-04T03:27:37.358Z,99615.00
2018-12-04T03:32:38.739Z,99631.00
2018-12-04T03:37:40.126Z,99650.00
2018-12-04T03:42:41.490Z,99658.00
2018-12-04T03:47:42.861Z,99660.00
2018-12-04T03:52:44.317Z,99693.00
2018-12-04T03:57:45.717Z,99707.00
2018-12-04T04:02:47.114Z,99711.00
2018-12-04T04:07:48.500Z,99723.00
2018-12-04T04:12:49.996Z,99743.00
2018-12-04T04:17:51.378Z,99752.00
2018-12-04T04:22:52.913Z,99756.00
2018-12-04T04:27:54.392Z,99769.00
2018-12-04T04:32:55.798Z,99780.00
2018-12-04T04:37:57.217Z,99788.00
2018-12-04T04:42:58.573Z,99773.00
2018-12-04T04:48:00.288Z,99796.00
2018-12-04T04:53:01.619Z,99806.00
2018-12-04T04:58:03.096Z,99822.00
2018-12-04T05:03:04.702Z,99828.00
2018-12-04T05:08:06.957Z,99839.00
2018-12-04T05:13:08.203Z,99859.00
2018-12-04T05:18:09.395Z,99870.00
2018-12-04T05:23:10.668Z,99877.00
2018-12-04T05:28:11.978Z,99890.00
2018-12-04T05:33:13.296Z,99890.00
2018-12-04T05:38:14.525Z,99901.00
2018-12-04T05:43:15.772Z,99903.00
2018-12-04T05:48:17.073Z,99913.00
2018-12-04T05:53:35.510Z,99926.00
2018-12-04T05:58:36.725Z,99939.00
2018-12-04T06:03:38.060Z,99937.00
2018-12-04T06:08:39.401Z,99960.00
2018-12-04T06:13:40.635Z,99968.00
2018-12-04T06:18:41.965Z,99978.00
2018-12-04T06:23:43.233Z,99987.00
2018-12-04T06:28:44.458Z,100009.00
2018-12-04T06:33:45.774Z,100034.00
2018-12-04T06:38:47.076Z,100048.00
2018-12-04T06:43:48.577Z,100064.00
2018-12-04T06:48:49.822Z,100055.00
2018-12-04T06:53:51.169Z,100079.00
2018-12-04T06:58:52.469Z,100082.00
2018-12-04T07:03:53.661Z,100087.00
2018-12-04T07:08:54.901Z,100103.00
2018-12-04T07:13:56.202Z,100112.00
2018-12-04T07:18:57.453Z,100139.00
2018-12-04T07:23:58.714Z,100143.00
2018-12-04T07:28:59.956Z,100168.00
2018-12-04T07:34:01.385Z,100163.00
2018-12-04T07:39:05.449Z,100187.00
2018-12-04T07:44:06.664Z,100206.00
2018-12-04T07:49:07.977Z,100206.00
2018-12-04T07:54:09.198Z,100218.00
2018-12-04T07:59:10.558Z,100229.00
2018-12-04T08:04:11.790Z,100241.00
2018-12-04T08:09:13.011Z,100255.00
2018-12-04T08:14:14.226Z,100269.00
2018-12-04T08:19:15.458Z,100281.00
2018-12-04T08:24:16.672Z,100288.00
2018-12-04T08:29:18.049Z,100298.00
2018-12-04T08:34:19.257Z,100330.00
2018-12-04T08:39:20.495Z,100320.00
2018-12-04T08:44:21.727Z,100341.00
2018-12-04T08:49:23.041Z,100350.00
2018-12-04T08:54:24.250Z,100357.00
2018-12-04T08:59:25.487Z,100369.00
2018-12-04T09:04:26.714Z,100378.00
2018-12-04T09:09:27.945Z,100380.00
2018-12-04T09:14:29.167Z,100390.00
2018-12-04T09:19:30.411Z,100411.00
2018-12-04T09:24:31.758Z,100431.00
2018-12-04T09:29:33.150Z,100443.00
2018-12-04T09:34:34.390Z,100458.00
2018-12-04T09:39:35.623Z,100464.00
2018-12-04T09:44:36.850Z,100466.00
2018-12-04T09:49:38.034Z,100481.00
2018-12-04T09:54:39.238Z,100487.00
2018-12-04T09:59:40.459Z,100486.00
2018-12-04T10:04:41.764Z,100494.00
2018-12-04T10:09:43.095Z,100497.00
2018-12-04T10:14:44.426Z,100507.00
2018-12-04T10:19:45.653Z,100515.00
2018-12-04T10:24:46.907Z,100519.00
2018-12-04T10:29:48.261Z,100511.00
2018-12-04T10:34:49.583Z,100522.00
2018-12-04T10:39:50.793Z,100545.00
2018-12-04T10:44:52.183Z,100541.00
2018-12-04T10:49:53.506Z,100552.00
2018-12-04T10:54:54.865Z,100557.00
2018-12-04T10:59:56.078Z,100561.00
2018-12-04T11:04:57.411Z,100570.00
2018-12-04T11:09:58.660Z,100574.00
2018-12-04T11:14:59.995Z,100589.00
2018-12-04T11:20:01.584Z,100599.00
2018-12-04T11:25:05.666Z,100603.00
2018-12-04T11:30:08.350Z,100609.00
2018-12-04T11:35:09.688Z,100612.00
2018-12-04T11:40:10.934Z,100615.00
2018-12-04T11:45:12.341Z,100619.00
2018-12-04T11:50:13.566Z,100637.00
2018-12-04T11:55:14.957Z,100648.00
2018-12-04T12:00:18.503Z,100637.00
2018-12-04T12:05:19.803Z,100641.00
2018-12-04T12:10:21.099Z,100645.00
2018-12-04T12:15:22.659Z,100647.00
2018-12-04T12:20:23.847Z,100655.00
2018-12-04T12:25:25.052Z,100666.00
2018-12-04T12:30:26.282Z,100660.00
2018-12-04T12:35:27.518Z,100664.00
2018-12-04T12:40:28.755Z,100675.00
2018-12-04T12:45:30.131Z,100683.00
2018-12-04T12:50:31.350Z,100698.00
2018-12-04T12:55:32.685Z,100704.00
2018-12-04T13:00:33.885Z,100710.00
2018-12-04T13:05:35.126Z,100719.00
2018-12-04T13:10:36.324Z,100727.00
2018-12-04T13:15:37.636Z,100716.00
2018-12-04T13:20:38.962Z,100720.00
2018-12-04T13:25:40.851Z,100734.00
2018-12-04T13:30:42.231Z,100742.00
2018-12-04T13:35:43.437Z,100745.00
2018-12-04T13:40:44.658Z,100747.00
2018-12-04T13:45:46.033Z,100746.00
2018-12-04T13:50:47.386Z,100751.00
2018-12-04T13:55:48.717Z,100737.00
2018-12-04T14:00:50.067Z,100736.00
2018-12-04T14:05:52.633Z,100749.00
2018-12-04T14:10:54.083Z,100756.00
2018-12-04T14:15:56.871Z,100767.00
2018-12-04T14:20:58.341Z,100770.00
2018-12-04T14:25:59.691Z,100779.00
2018-12-04T14:31:01.020Z,100781.00
2018-12-04T14:36:02.569Z,100792.00
2018-12-04T14:41:03.912Z,100794.00
2018-12-04T14:46:05.430Z,100800.00
2018-12-04T14:51:06.778Z,100809.00
2018-12-04T14:56:08.133Z,100825.00
2018-12-04T15:01:09.592Z,100833.00
2018-12-04T15:06:12.027Z,100844.00
2018-12-04T15:11:13.391Z,100853.00
2018-12-04T15:16:14.776Z,100858.00
2018-12-04T15:21:16.146Z,100863.00
2018-12-04T15:26:17.474Z,100863.00
2018-12-04T15:31:18.789Z,100878.00
2018-12-04T15:36:20.180Z,100893.00
2018-12-04T15:41:21.513Z,100903.00
2018-12-04T15:46:22.949Z,100897.00
2018-12-04T15:51:24.335Z,100909.00
2018-12-04T15:56:25.684Z,100911.00
2018-12-04T16:01:26.900Z,100917.00
2018-12-04T16:06:28.477Z,100925.00
2018-12-04T16:11:29.720Z,100930.00
2018-12-04T16:16:31.228Z,100937.00
2018-12-04T16:21:32.606Z,100949.00
2018-12-04T16:26:33.849Z,100952.00
2018-12-04T16:31:35.196Z,100950.00
2018-12-04T16:36:36.453Z,100957.00
2018-12-04T16:41:37.782Z,100959.00
2018-12-04T16:46:39.402Z,100970.00
2018-12-04T16:51:40.757Z,100973.00
2018-12-04T16:56:42.143Z,100993.00
2018-12-04T17:01:43.535Z,100999.00
2018-12-04T17:06:44.771Z,100989.00
2018-12-04T17:11:46.094Z,100985.00
2018-12-04T17:16:47.355Z,100985.00
2018-12-04T17:21:48.606Z,100988.00
2018-12-04T17:26:50.086Z,101013.00
2018-12-04T17:31:51.382Z,101012.00
2018-12-04T17:36:52.609Z,100998.00
2018-12-04T17:41:53.891Z,101011.00
2018-12-04T17:46:55.170Z,101016.00
2018-12-04T17:51:56.407Z,101007.00
2018-12-04T17:56:57.686Z,101019.00
2018-12-04T18:01:59.003Z,101016.00
2018-12-04T18:07:00.565Z,101011.00
2018-12-04T18:12:01.808Z,101019.00
2018-12-04T18:17:03.082Z,101024.00
2018-12-04T18:22:04.606Z,101023.00
2018-12-04T18:27:05.873Z,101025.00
2018-12-04T18:32:07.131Z,101040.00
2018-12-04T18:37:08.467Z,101049.00
2018-12-04T18:42:09.694Z,101057.00
2018-12-04T18:47:11.166Z,101060.00
2018-12-04T18:52:12.513Z,101059.00
2018-12-04T18:57:13.955Z,101066.00
2018-12-04T19:02:15.381Z,101066.00
2018-12-04T19:07:16.642Z,101064.00
2018-12-04T19:12:17.909Z,101074.00
2018-12-04T19:17:19.180Z,101046.00
2018-12-04T19:22:20.408Z,101072.00
2018-12-04T19:27:21.633Z,101078.00
2018-12-04T19:32:23.079Z,101083.00
2018-12-04T19:37:24.415Z,101080.00
2018-12-04T19:42:25.784Z,101087.00
2018-12-04T19:47:27.167Z,101085.00
2018-12-04T19:52:28.416Z,101091.00
2018-12-04T19:57:29.787Z,101111.00
2018-12-04T20:02:31.065Z,101107.00
2018-12-04T20:07:32.344Z,101114.00
2018-12-04T20:12:33.581Z,101107.00
2018-12-04T20:17:34.960Z,101102.00
2018-12-04T20:22:36.396Z,101119.00
2018-12-04T20:27:37.695Z,101126.00
2018-12-04T20:32:39.044Z,101132.00
2018-12-04T20:37:40.330Z,101135.00
2018-12-04T20:42:41.525Z,101144.00
2018-12-04T20:47:42.952Z,101150.00
